createdAt,value
2016-08-14T00:00:11.982Z,1011.31
2016-08-14T00:01:12.332Z,1011.28
2016-08-14T00:02:12.073Z,1011.28
2016-08-14T00:03:12.258Z,1011.3
2016-08-14T00:04:12.124Z,1011.27
2016-08-14T00:05:12.220Z,1011.33
2016-08-14T00:06:12.181Z,1011.35
2016-08-14T00:07:12.098Z,1011.29
2016-08-14T00:08:12.244Z,1011.3
2016-08-14T00:09:12.591Z,1011.28
2016-08-14T00:10:12.352Z,1011.27
2016-08-14T00:11:13.003Z,1011.33
2016-08-14T00:12:12.350Z,1011.32
2016-08-14T00:13:12.296Z,1011.32
2016-08-14T00:14:12.383Z,1011.35
2016-08-14T00:15:12.664Z,1011.36
2016-08-14T00:16:12.243Z,1011.31
2016-08-14T00:17:12.668Z,1011.28
2016-08-14T00:18:12.385Z,1011.27
2016-08-14T00:19:12.509Z,1011.25
2016-08-14T00:20:13.028Z,1011.27
2016-08-14T00:21:12.501Z,1011.27
2016-08-14T00:22:13.291Z,1011.25
2016-08-14T00:23:12.675Z,1011.25
2016-08-14T00:24:13.093Z,1011.25
2016-08-14T00:25:12.715Z,1011.22
2016-08-14T00:26:13.002Z,1011.19
2016-08-14T00:27:12.671Z,1011.19
2016-08-14T00:28:13.588Z,1011.2
2016-08-14T00:29:12.804Z,1011.22
2016-08-14T00:30:12.762Z,1011.25
2016-08-14T00:31:12.850Z,1011.21
2016-08-14T00:32:12.817Z,1011.24
2016-08-14T00:33:13.319Z,1011.26
2016-08-14T00:34:13.164Z,1011.25
2016-08-14T00:35:13.076Z,1011.24
2016-08-14T00:36:13.316Z,1011.21
2016-08-14T00:37:13.160Z,1011.2
2016-08-14T00:38:12.943Z,1011.2
2016-08-14T00:39:13.445Z,1011.22
2016-08-14T00:40:12.960Z,1011.24
2016-08-14T00:41:13.548Z,1011.28
2016-08-14T00:42:13.188Z,1011.29
2016-08-14T00:43:13.174Z,1011.27
2016-08-14T00:44:13.376Z,1011.25
2016-08-14T00:45:13.059Z,1011.27
2016-08-14T00:46:13.106Z,1011.28
2016-08-14T00:47:13.103Z,1011.25
2016-08-14T00:48:13.322Z,1011.24
2016-08-14T00:49:13.563Z,1011.26
2016-08-14T00:50:13.410Z,1011.26
2016-08-14T00:51:13.364Z,1011.29
2016-08-14T00:52:13.678Z,1011.27
2016-08-14T00:53:13.770Z,1011.26
2016-08-14T00:54:13.449Z,1011.32
2016-08-14T00:55:13.533Z,1011.28
2016-08-14T00:56:13.591Z,1011.3
2016-08-14T00:57:13.419Z,1011.3
2016-08-14T00:58:13.732Z,1011.31
2016-08-14T00:59:13.446Z,1011.3
2016-08-14T01:00:13.571Z,1011.3
2016-08-14T01:01:13.461Z,1011.3
2016-08-14T01:02:13.748Z,1011.32
2016-08-14T01:03:13.931Z,1011.3
2016-08-14T01:04:14.111Z,1011.33
2016-08-14T01:05:13.636Z,1011.36
2016-08-14T01:06:13.936Z,1011.34
2016-08-14T01:07:13.708Z,1011.32
2016-08-14T01:08:13.756Z,1011.32
2016-08-14T01:09:13.840Z,1011.36
2016-08-14T01:10:13.841Z,1011.36
2016-08-14T01:11:13.763Z,1011.35
2016-08-14T01:12:13.713Z,1011.34
2016-08-14T01:13:13.728Z,1011.31
2016-08-14T01:14:14.063Z,1011.34
2016-08-14T01:15:13.991Z,1011.31
2016-08-14T01:16:13.826Z,1011.3
2016-08-14T01:17:13.990Z,1011.29
2016-08-14T01:18:14.334Z,1011.29
2016-08-14T01:19:13.872Z,1011.28
2016-08-14T01:20:14.160Z,1011.27
2016-08-14T01:21:14.349Z,1011.29
2016-08-14T01:22:14.130Z,1011.26
2016-08-14T01:23:14.322Z,1011.28
2016-08-14T01:24:14.110Z,1011.27
2016-08-14T01:25:14.383Z,1011.26
2016-08-14T01:26:14.339Z,1011.31
2016-08-14T01:27:14.174Z,1011.28
2016-08-14T01:28:14.646Z,1011.33
2016-08-14T01:29:14.483Z,1011.26
2016-08-14T01:30:14.229Z,1011.29
2016-08-14T01:31:14.415Z,1011.31
2016-08-14T01:32:14.732Z,1011.27
2016-08-14T01:33:14.663Z,1011.3
2016-08-14T01:34:14.525Z,1011.28
2016-08-14T01:35:14.204Z,1011.31
2016-08-14T01:36:14.288Z,1011.25
2016-08-14T01:37:14.347Z,1011.21
2016-08-14T01:38:14.463Z,1011.21
2016-08-14T01:39:14.658Z,1011.2
2016-08-14T01:40:14.784Z,1011.24
2016-08-14T01:41:14.929Z,1011.23
2016-08-14T01:42:14.623Z,1011.22
2016-08-14T01:43:14.759Z,1011.21
2016-08-14T01:44:15.243Z,1011.21
2016-08-14T01:45:14.497Z,1011.28
2016-08-14T01:46:14.844Z,1011.22
2016-08-14T01:47:14.695Z,1011.25
2016-08-14T01:48:14.806Z,1011.27
2016-08-14T01:49:14.832Z,1011.24
2016-08-14T01:50:14.750Z,1011.32
2016-08-14T01:51:14.714Z,1011.27
2016-08-14T01:52:14.940Z,1011.28
2016-08-14T01:53:14.753Z,1011.33
2016-08-14T01:54:14.787Z,1011.33
2016-08-14T01:55:15.030Z,1011.28
2016-08-14T01:56:15.172Z,1011.22
2016-08-14T01:57:14.710Z,1011.23
2016-08-14T01:58:15.031Z,1011.24
2016-08-14T01:59:15.024Z,1011.27
2016-08-14T02:00:15.377Z,1011.26
2016-08-14T02:01:15.046Z,1011.22
2016-08-14T02:02:15.130Z,1011.25
2016-08-14T02:03:15.629Z,1011.22
2016-08-14T02:04:15.249Z,1011.23
2016-08-14T02:05:15.081Z,1011.23
2016-08-14T02:06:15.201Z,1011.24
2016-08-14T02:07:15.356Z,1011.26
2016-08-14T02:08:15.192Z,1011.27
2016-08-14T02:09:15.437Z,1011.28
2016-08-14T02:10:15.470Z,1011.29
2016-08-14T02:11:15.226Z,1011.32
2016-08-14T02:12:15.338Z,1011.32
2016-08-14T02:13:15.574Z,1011.35
2016-08-14T02:14:15.562Z,1011.33
2016-08-14T02:15:15.380Z,1011.3
2016-08-14T02:16:15.590Z,1011.32
2016-08-14T02:17:15.403Z,1011.29
2016-08-14T02:18:15.505Z,1011.28
2016-08-14T02:19:15.476Z,1011.31
2016-08-14T02:20:15.552Z,1011.34
2016-08-14T02:21:15.732Z,1011.28
2016-08-14T02:22:15.907Z,1011.27
2016-08-14T02:23:15.722Z,1011.27
2016-08-14T02:24:15.896Z,1011.28
2016-08-14T02:25:16.021Z,1011.29
2016-08-14T02:26:15.503Z,1011.24
2016-08-14T02:27:15.998Z,1011.27
2016-08-14T02:28:15.865Z,1011.26
2016-08-14T02:29:15.812Z,1011.26
2016-08-14T02:30:16.040Z,1011.26
2016-08-14T02:31:16.205Z,1011.27
2016-08-14T02:32:16.207Z,1011.26
2016-08-14T02:33:16.305Z,1011.3
2016-08-14T02:34:15.946Z,1011.27
2016-08-14T02:35:15.948Z,1011.25
2016-08-14T02:36:15.809Z,1011.28
2016-08-14T02:37:16.106Z,1011.27
2016-08-14T02:38:16.842Z,1011.25
2016-08-14T02:39:15.931Z,1011.24
2016-08-14T02:40:15.900Z,1011.26
2016-08-14T02:41:15.940Z,1011.25
2016-08-14T02:42:16.153Z,1011.26
2016-08-14T02:43:16.111Z,1011.23
2016-08-14T02:44:16.057Z,1011.3
2016-08-14T02:45:16.225Z,1011.21
2016-08-14T02:46:16.617Z,1011.23
2016-08-14T02:47:16.088Z,1011.23
2016-08-14T02:48:16.472Z,1011.22
2016-08-14T02:49:17.074Z,1011.23
2016-08-14T02:50:17.041Z,1011.25
2016-08-14T02:51:16.257Z,1011.23
2016-08-14T02:52:16.513Z,1011.28
2016-08-14T02:53:16.812Z,1011.26
2016-08-14T02:54:16.681Z,1011.26
2016-08-14T02:55:16.777Z,1011.26
2016-08-14T02:56:16.571Z,1011.24
2016-08-14T02:57:16.640Z,1011.24
2016-08-14T02:58:16.630Z,1011.25
2016-08-14T02:59:16.858Z,1011.27
2016-08-14T03:00:17.012Z,1011.21
2016-08-14T03:01:16.678Z,1011.21
2016-08-14T03:02:16.574Z,1011.22
2016-08-14T03:03:16.597Z,1011.24
2016-08-14T03:04:16.930Z,1011.21
2016-08-14T03:05:16.694Z,1011.22
2016-08-14T03:06:17.067Z,1011.22
2016-08-14T03:07:17.198Z,1011.23
2016-08-14T03:08:16.892Z,1011.22
2016-08-14T03:09:17.158Z,1011.21
2016-08-14T03:10:16.875Z,1011.24
2016-08-14T03:11:16.881Z,1011.25
2016-08-14T03:12:16.976Z,1011.25
2016-08-14T03:13:17.313Z,1011.26
2016-08-14T03:14:17.036Z,1011.26
2016-08-14T03:15:16.788Z,1011.29
2016-08-14T03:16:16.823Z,1011.25
2016-08-14T03:17:17.005Z,1011.22
2016-08-14T03:18:16.990Z,1011.26
2016-08-14T03:19:17.312Z,1011.27
2016-08-14T03:20:17.007Z,1011.28
2016-08-14T03:21:17.075Z,1011.28
2016-08-14T03:22:17.479Z,1011.27
2016-08-14T03:23:16.953Z,1011.29
2016-08-14T03:24:16.905Z,1011.23
2016-08-14T03:25:17.204Z,1011.29
2016-08-14T03:26:17.173Z,1011.28
2016-08-14T03:27:17.060Z,1011.27
2016-08-14T03:28:16.969Z,1011.26
2016-08-14T03:29:17.376Z,1011.28
2016-08-14T03:30:17.175Z,1011.26
2016-08-14T03:31:17.226Z,1011.28
2016-08-14T03:32:17.445Z,1011.32
2016-08-14T03:33:17.419Z,1011.29
2016-08-14T03:34:17.375Z,1011.28
2016-08-14T03:35:17.213Z,1011.28
2016-08-14T03:36:17.714Z,1011.28
2016-08-14T03:37:17.371Z,1011.32
2016-08-14T03:38:17.593Z,1011.34
2016-08-14T03:39:17.521Z,1011.34
2016-08-14T03:40:17.423Z,1011.34
2016-08-14T03:41:17.362Z,1011.33
2016-08-14T03:42:17.292Z,1011.34
2016-08-14T03:43:17.361Z,1011.31
2016-08-14T03:44:17.542Z,1011.33
2016-08-14T03:45:17.553Z,1011.35
2016-08-14T03:46:17.751Z,1011.36
2016-08-14T03:47:18.221Z,1011.4
2016-08-14T03:48:17.600Z,1011.34
2016-08-14T03:49:17.621Z,1011.32
2016-08-14T03:50:17.764Z,1011.33
2016-08-14T03:51:17.656Z,1011.35
2016-08-14T03:52:17.724Z,1011.33
2016-08-14T03:53:17.712Z,1011.35
2016-08-14T03:54:18.071Z,1011.33
2016-08-14T03:55:17.740Z,1011.41
2016-08-14T03:56:17.963Z,1011.37
2016-08-14T03:57:17.864Z,1011.39
2016-08-14T03:58:18.029Z,1011.4
2016-08-14T03:59:18.130Z,1011.44
2016-08-14T04:00:17.910Z,1011.4
2016-08-14T04:01:18.152Z,1011.42
2016-08-14T04:02:18.091Z,1011.42
2016-08-14T04:03:18.417Z,1011.43
2016-08-14T04:04:18.043Z,1011.4
2016-08-14T04:05:18.092Z,1011.43
2016-08-14T04:06:18.072Z,1011.42
2016-08-14T04:07:17.956Z,1011.43
2016-08-14T04:08:18.044Z,1011.43
2016-08-14T04:09:17.962Z,1011.44
2016-08-14T04:10:17.986Z,1011.44
2016-08-14T04:11:18.297Z,1011.42
2016-08-14T04:12:18.390Z,1011.44
2016-08-14T04:13:18.256Z,1011.45
2016-08-14T04:14:18.355Z,1011.46
2016-08-14T04:15:18.204Z,1011.5
2016-08-14T04:16:18.219Z,1011.47
2016-08-14T04:17:18.329Z,1011.51
2016-08-14T04:18:18.386Z,1011.46
2016-08-14T04:19:18.457Z,1011.47
2016-08-14T04:20:18.856Z,1011.5
2016-08-14T04:21:18.358Z,1011.48
2016-08-14T04:22:18.517Z,1011.47
2016-08-14T04:23:18.514Z,1011.5
2016-08-14T04:24:18.462Z,1011.52
2016-08-14T04:25:18.570Z,1011.49
2016-08-14T04:26:18.949Z,1011.53
2016-08-14T04:27:18.386Z,1011.55
2016-08-14T04:28:18.378Z,1011.51
2016-08-14T04:29:18.793Z,1011.52
2016-08-14T04:30:18.533Z,1011.52
2016-08-14T04:31:18.634Z,1011.51
2016-08-14T04:32:18.483Z,1011.52
2016-08-14T04:33:18.700Z,1011.5
2016-08-14T04:34:18.794Z,1011.55
2016-08-14T04:35:18.635Z,1011.58
2016-08-14T04:36:18.621Z,1011.51
2016-08-14T04:37:18.795Z,1011.55
2016-08-14T04:38:18.690Z,1011.49
2016-08-14T04:39:18.913Z,1011.5
2016-08-14T04:40:18.860Z,1011.45
2016-08-14T04:41:18.924Z,1011.43
2016-08-14T04:42:19.094Z,1011.4
2016-08-14T04:43:19.015Z,1011.41
2016-08-14T04:44:19.134Z,1011.44
2016-08-14T04:45:18.992Z,1011.49
2016-08-14T04:46:19.318Z,1011.5
2016-08-14T04:47:19.434Z,1011.48
2016-08-14T04:48:19.081Z,1011.54
2016-08-14T04:49:19.088Z,1011.52
2016-08-14T04:50:19.582Z,1011.56
2016-08-14T04:51:19.081Z,1011.55
2016-08-14T04:52:19.246Z,1011.56
2016-08-14T04:53:19.047Z,1011.55
2016-08-14T04:54:19.043Z,1011.57
2016-08-14T04:55:19.127Z,1011.59
2016-08-14T04:56:19.123Z,1011.59
2016-08-14T04:57:19.137Z,1011.56
2016-08-14T04:58:19.369Z,1011.62
2016-08-14T04:59:19.325Z,1011.6
2016-08-14T05:00:19.365Z,1011.64
2016-08-14T05:01:19.676Z,1011.67
2016-08-14T05:02:19.337Z,1011.69
2016-08-14T05:03:19.303Z,1011.71
2016-08-14T05:04:19.880Z,1011.69
2016-08-14T05:05:20.120Z,1011.65
2016-08-14T05:06:19.434Z,1011.65
2016-08-14T05:07:19.514Z,1011.64
2016-08-14T05:08:19.943Z,1011.63
2016-08-14T05:09:19.622Z,1011.61
2016-08-14T05:10:19.663Z,1011.63
2016-08-14T05:11:19.829Z,1011.64
2016-08-14T05:12:19.505Z,1011.61
2016-08-14T05:13:19.817Z,1011.6
2016-08-14T05:14:19.786Z,1011.61
2016-08-14T05:15:19.974Z,1011.65
2016-08-14T05:16:19.728Z,1011.62
2016-08-14T05:17:19.566Z,1011.61
2016-08-14T05:18:19.759Z,1011.59
2016-08-14T05:19:19.723Z,1011.6
2016-08-14T05:20:19.827Z,1011.6
2016-08-14T05:21:19.762Z,1011.64
2016-08-14T05:22:20.105Z,1011.67
2016-08-14T05:23:19.979Z,1011.66
2016-08-14T05:24:19.819Z,1011.66
2016-08-14T05:25:20.321Z,1011.71
2016-08-14T05:26:19.935Z,1011.66
2016-08-14T05:27:19.891Z,1011.69
2016-08-14T05:28:20.200Z,1011.69
2016-08-14T05:29:19.899Z,1011.73
2016-08-14T05:30:20.040Z,1011.76
2016-08-14T05:31:20.144Z,1011.76
2016-08-14T05:32:20.690Z,1011.78
2016-08-14T05:33:20.055Z,1011.78
2016-08-14T05:34:20.594Z,1011.76
2016-08-14T05:35:20.355Z,1011.73
2016-08-14T05:36:20.530Z,1011.67
2016-08-14T05:37:20.105Z,1011.68
2016-08-14T05:38:20.678Z,1011.73
2016-08-14T05:39:20.076Z,1011.74
2016-08-14T05:40:20.434Z,1011.78
2016-08-14T05:41:20.274Z,1011.78
2016-08-14T05:42:20.191Z,1011.82
2016-08-14T05:43:20.161Z,1011.83
2016-08-14T05:44:20.698Z,1011.87
2016-08-14T05:45:20.519Z,1011.88
2016-08-14T05:46:20.685Z,1011.89
2016-08-14T05:47:20.401Z,1011.88
2016-08-14T05:48:20.416Z,1011.96
2016-08-14T05:49:20.442Z,1011.92
2016-08-14T05:50:20.603Z,1011.93
2016-08-14T05:51:20.560Z,1011.93
2016-08-14T05:52:20.833Z,1011.91
2016-08-14T05:53:20.492Z,1011.95
2016-08-14T05:54:20.681Z,1011.96
2016-08-14T05:55:20.513Z,1011.96
2016-08-14T05:56:20.560Z,1011.95
2016-08-14T05:57:20.467Z,1011.97
2016-08-14T05:58:20.611Z,1011.97
2016-08-14T05:59:20.743Z,1012.03
2016-08-14T06:00:20.680Z,1012.02
2016-08-14T06:01:21.074Z,1012.05
2016-08-14T06:02:20.986Z,1012.05
2016-08-14T06:03:20.857Z,1012.08
2016-08-14T06:04:20.866Z,1012.07
2016-08-14T06:05:21.407Z,1012.06
2016-08-14T06:06:21.524Z,1012.11
2016-08-14T06:07:20.821Z,1012.11
2016-08-14T06:08:20.976Z,1012.15
2016-08-14T06:09:21.290Z,1012.14
2016-08-14T06:10:21.558Z,1012.12
2016-08-14T06:11:20.991Z,1012.11
2016-08-14T06:12:21.421Z,1012.09
2016-08-14T06:13:21.095Z,1012.08
2016-08-14T06:14:21.152Z,1012.13
2016-08-14T06:15:20.964Z,1012.12
2016-08-14T06:16:21.158Z,1012.14
2016-08-14T06:17:21.103Z,1012.17
2016-08-14T06:18:21.510Z,1012.18
2016-08-14T06:19:21.170Z,1012.15
2016-08-14T06:20:21.402Z,1012.23
2016-08-14T06:21:21.182Z,1012.2
2016-08-14T06:22:21.544Z,1012.21
2016-08-14T06:23:21.172Z,1012.19
2016-08-14T06:24:21.222Z,1012.19
2016-08-14T06:25:21.255Z,1012.22
2016-08-14T06:26:22.164Z,1012.16
2016-08-14T06:27:21.289Z,1012.14
2016-08-14T06:28:21.456Z,1012.14
2016-08-14T06:29:21.746Z,1012.14
2016-08-14T06:30:21.643Z,1012.19
2016-08-14T06:31:21.690Z,1012.16
2016-08-14T06:32:21.625Z,1012.1
2016-08-14T06:33:21.776Z,1012.17
2016-08-14T06:34:21.881Z,1012.18
2016-08-14T06:35:21.947Z,1012.15
2016-08-14T06:36:22.170Z,1012.21
2016-08-14T06:37:21.644Z,1012.16
2016-08-14T06:38:21.729Z,1012.17
2016-08-14T06:39:22.087Z,1012.13
2016-08-14T06:40:22.199Z,1012.14
2016-08-14T06:41:21.683Z,1012.13
2016-08-14T06:42:21.776Z,1012.15
2016-08-14T06:43:22.075Z,1012.14
2016-08-14T06:44:21.972Z,1012.11
2016-08-14T06:45:21.936Z,1012.11
2016-08-14T06:46:22.017Z,1012.08
2016-08-14T06:47:21.900Z,1012.11
2016-08-14T06:48:22.094Z,1012.11
2016-08-14T06:49:21.886Z,1012.11
2016-08-14T06:50:22.164Z,1012.11
2016-08-14T06:51:22.059Z,1012.11
2016-08-14T06:52:22.409Z,1012.14
2016-08-14T06:53:22.067Z,1012.16
2016-08-14T06:54:22.491Z,1012.13
2016-08-14T06:55:22.060Z,1012.09
2016-08-14T06:56:22.899Z,1012.11
2016-08-14T06:57:22.299Z,1012.17
2016-08-14T06:58:22.272Z,1012.17
2016-08-14T06:59:22.328Z,1012.2
2016-08-14T07:00:22.061Z,1012.23
2016-08-14T07:01:22.225Z,1012.18
2016-08-14T07:02:22.592Z,1012.19
2016-08-14T07:03:22.301Z,1012.19
2016-08-14T07:04:22.341Z,1012.16
2016-08-14T07:05:22.499Z,1012.18
2016-08-14T07:06:22.470Z,1012.2
2016-08-14T07:07:22.272Z,1012.25
2016-08-14T07:08:22.295Z,1012.26
2016-08-14T07:09:22.492Z,1012.31
2016-08-14T07:10:22.788Z,1012.33
2016-08-14T07:11:22.776Z,1012.29
2016-08-14T07:12:22.627Z,1012.3
2016-08-14T07:13:22.507Z,1012.32
2016-08-14T07:14:22.556Z,1012.28
2016-08-14T07:15:22.582Z,1012.22
2016-08-14T07:16:22.696Z,1012.26
2016-08-14T07:17:22.710Z,1012.29
2016-08-14T07:18:22.765Z,1012.28
2016-08-14T07:19:22.715Z,1012.27
2016-08-14T07:20:22.695Z,1012.33
2016-08-14T07:21:23.005Z,1012.29
2016-08-14T07:22:22.728Z,1012.33
2016-08-14T07:23:23.113Z,1012.31
2016-08-14T07:24:22.944Z,1012.3
2016-08-14T07:25:22.966Z,1012.31
2016-08-14T07:26:23.329Z,1012.33
2016-08-14T07:27:23.371Z,1012.34
2016-08-14T07:28:23.822Z,1012.36
2016-08-14T07:29:23.024Z,1012.38
2016-08-14T07:30:23.479Z,1012.34
2016-08-14T07:31:23.341Z,1012.37
2016-08-14T07:32:23.310Z,1012.41
2016-08-14T07:33:23.376Z,1012.42
2016-08-14T07:34:23.050Z,1012.41
2016-08-14T07:35:23.204Z,1012.43
2016-08-14T07:36:23.148Z,1012.45
2016-08-14T07:37:23.311Z,1012.48
2016-08-14T07:38:23.581Z,1012.45
2016-08-14T07:39:24.060Z,1012.45
2016-08-14T07:40:23.351Z,1012.46
2016-08-14T07:41:23.173Z,1012.49
2016-08-14T07:42:23.263Z,1012.52
2016-08-14T07:43:23.354Z,1012.54
2016-08-14T07:44:23.300Z,1012.56
2016-08-14T07:45:23.373Z,1012.61
2016-08-14T07:46:23.415Z,1012.7
2016-08-14T07:47:23.476Z,1012.76
2016-08-14T07:48:23.387Z,1012.74
2016-08-14T07:49:23.416Z,1012.78
2016-08-14T07:50:23.628Z,1012.81
2016-08-14T07:51:23.628Z,1012.84
2016-08-14T07:52:23.925Z,1012.85
2016-08-14T07:53:24.056Z,1012.87
2016-08-14T07:54:23.581Z,1012.85
2016-08-14T07:55:24.004Z,1012.87
2016-08-14T07:56:23.782Z,1012.84
2016-08-14T07:57:23.770Z,1012.81
2016-08-14T07:58:24.102Z,1012.79
2016-08-14T07:59:24.108Z,1012.8
2016-08-14T08:00:24.152Z,1012.77
2016-08-14T08:01:23.868Z,1012.75
2016-08-14T08:02:24.179Z,1012.76
2016-08-14T08:03:23.892Z,1012.78
2016-08-14T08:04:24.060Z,1012.83
2016-08-14T08:05:23.951Z,1012.87
2016-08-14T08:06:24.334Z,1012.85
2016-08-14T08:07:23.894Z,1012.75
2016-08-14T08:08:24.201Z,1012.8
2016-08-14T08:09:24.042Z,1012.78
2016-08-14T08:10:24.049Z,1012.75
2016-08-14T08:11:24.614Z,1012.71
2016-08-14T08:12:24.068Z,1012.69
2016-08-14T08:13:24.254Z,1012.7
2016-08-14T08:14:24.078Z,1012.68
2016-08-14T08:15:24.143Z,1012.65
2016-08-14T08:16:24.751Z,1012.67
2016-08-14T08:17:24.575Z,1012.68
2016-08-14T08:18:24.284Z,1012.73
2016-08-14T08:19:24.387Z,1012.76
2016-08-14T08:20:24.486Z,1012.82
2016-08-14T08:21:24.242Z,1012.84
2016-08-14T08:22:24.575Z,1012.9
2016-08-14T08:23:24.568Z,1012.95
2016-08-14T08:24:24.658Z,1013.04
2016-08-14T08:25:24.490Z,1013.09
2016-08-14T08:26:24.485Z,1013.13
2016-08-14T08:27:24.526Z,1013.07
2016-08-14T08:28:24.928Z,1013.12
2016-08-14T08:29:24.587Z,1013.12
2016-08-14T08:30:24.607Z,1013.14
2016-08-14T08:31:25.476Z,1013.12
2016-08-14T08:32:24.520Z,1013.16
2016-08-14T08:33:24.619Z,1013.14
2016-08-14T08:34:25.041Z,1013.12
2016-08-14T08:35:24.784Z,1013.14
2016-08-14T08:36:25.040Z,1013.04
2016-08-14T08:37:24.769Z,1012.97
2016-08-14T08:38:24.861Z,1012.88
2016-08-14T08:39:24.875Z,1012.83
2016-08-14T08:40:25.007Z,1012.81
2016-08-14T08:41:25.191Z,1012.75
2016-08-14T08:42:25.079Z,1012.69
2016-08-14T08:43:25.291Z,1012.72
2016-08-14T08:44:25.328Z,1012.82
2016-08-14T08:45:24.950Z,1012.89
2016-08-14T08:46:25.519Z,1012.99
2016-08-14T08:47:25.335Z,1013.09
2016-08-14T08:48:25.085Z,1013.09
2016-08-14T08:49:25.313Z,1013.16
2016-08-14T08:50:25.230Z,1013.14
2016-08-14T08:51:25.280Z,1013.07
2016-08-14T08:52:25.464Z,1013.08
2016-08-14T08:53:25.247Z,1013.07
2016-08-14T08:54:25.448Z,1013.14
2016-08-14T08:55:25.387Z,1013.01
2016-08-14T08:56:25.526Z,1012.99
2016-08-14T08:57:25.588Z,1013.03
2016-08-14T08:58:25.399Z,1013.04
2016-08-14T08:59:25.529Z,1013.17
2016-08-14T09:00:25.618Z,1013.2
2016-08-14T09:01:25.582Z,1013.26
2016-08-14T09:02:25.374Z,1013.22
2016-08-14T09:03:25.448Z,1013.11
2016-08-14T09:04:25.540Z,1013.09
2016-08-14T09:05:25.540Z,1013.21
2016-08-14T09:06:26.257Z,1013.09
2016-08-14T09:07:25.631Z,1013.3
2016-08-14T09:08:25.722Z,1013.13
2016-08-14T09:09:25.638Z,1013.1
2016-08-14T09:10:25.709Z,1013.39
2016-08-14T09:11:25.794Z,1013.3
2016-08-14T09:12:25.944Z,1013.32
2016-08-14T09:13:26.194Z,1013.25
2016-08-14T09:14:25.804Z,1013.27
2016-08-14T09:15:25.966Z,1013.28
2016-08-14T09:16:26.136Z,1013.24
2016-08-14T09:17:26.006Z,1013.19
2016-08-14T09:18:25.998Z,1013.19
2016-08-14T09:19:25.937Z,1013.11
2016-08-14T09:20:26.192Z,1013.16
2016-08-14T09:21:26.701Z,1013.14
2016-08-14T09:22:26.229Z,1013.11
2016-08-14T09:23:26.174Z,1013.11
2016-08-14T09:24:26.132Z,1013.1
2016-08-14T09:25:26.580Z,1013.2
2016-08-14T09:26:26.213Z,1013.09
2016-08-14T09:27:26.139Z,1013.07
2016-08-14T09:28:26.621Z,1013.15
2016-08-14T09:29:26.393Z,1013.14
2016-08-14T09:30:26.247Z,1013.05
2016-08-14T09:31:26.458Z,1013
2016-08-14T09:32:26.597Z,1013.03
2016-08-14T09:33:26.911Z,1013.1
2016-08-14T09:34:26.896Z,1013.07
2016-08-14T09:35:26.885Z,1013.05
2016-08-14T09:36:26.990Z,1013.06
2016-08-14T09:37:26.913Z,1012.98
2016-08-14T09:38:27.032Z,1013.03
2016-08-14T09:39:26.787Z,1013.16
2016-08-14T09:40:26.917Z,1013.21
2016-08-14T09:41:27.385Z,1013.29
2016-08-14T09:42:26.930Z,1013.15
2016-08-14T09:43:26.892Z,1013.08
2016-08-14T09:44:26.816Z,1013.24
2016-08-14T09:45:26.841Z,1013.37
2016-08-14T09:46:27.069Z,1013.39
2016-08-14T09:47:26.933Z,1013.39
2016-08-14T09:48:27.554Z,1013.31
2016-08-14T09:49:27.064Z,1013.24
2016-08-14T09:50:26.832Z,1013.27
2016-08-14T09:51:27.097Z,1013.22
2016-08-14T09:52:27.225Z,1012.97
2016-08-14T09:53:27.216Z,1013.08
2016-08-14T09:54:27.319Z,1012.89
2016-08-14T09:55:27.231Z,1012.89
2016-08-14T09:56:27.572Z,1012.85
2016-08-14T09:57:27.424Z,1012.82
2016-08-14T09:58:27.358Z,1012.9
2016-08-14T09:59:27.278Z,1012.88
2016-08-14T10:00:27.455Z,1012.97
2016-08-14T10:01:27.405Z,1012.9
2016-08-14T10:02:27.509Z,1013
2016-08-14T10:03:27.389Z,1012.98
2016-08-14T10:04:28.557Z,1013.02
2016-08-14T10:05:27.566Z,1012.98
2016-08-14T10:06:27.962Z,1012.98
2016-08-14T10:07:27.466Z,1013.02
2016-08-14T10:08:27.585Z,1013.02
2016-08-14T10:09:27.997Z,1013.06
2016-08-14T10:10:27.896Z,1013.12
2016-08-14T10:11:27.686Z,1013.28
2016-08-14T10:12:27.788Z,1013.18
2016-08-14T10:13:27.847Z,1013.18
2016-08-14T10:14:27.918Z,1013.15
2016-08-14T10:15:27.991Z,1013.17
2016-08-14T10:16:28.034Z,1013.14
2016-08-14T10:17:27.808Z,1013.18
2016-08-14T10:18:27.908Z,1013.15
2016-08-14T10:19:28.021Z,1013.23
2016-08-14T10:20:28.455Z,1013.11
2016-08-14T10:21:28.115Z,1013.09
2016-08-14T10:22:28.506Z,1013.1
2016-08-14T10:23:28.126Z,1013.12
2016-08-14T10:24:28.340Z,1013.23
2016-08-14T10:25:28.206Z,1013.2
2016-08-14T10:26:28.540Z,1013.2
2016-08-14T10:27:28.246Z,1013.22
2016-08-14T10:28:28.091Z,1013.19
2016-08-14T10:29:28.854Z,1013.23
2016-08-14T10:30:28.451Z,1013.23
2016-08-14T10:31:29.265Z,1013.24
2016-08-14T10:32:28.575Z,1013.2
2016-08-14T10:33:28.554Z,1013.16
2016-08-14T10:34:28.328Z,1013.19
2016-08-14T10:35:28.740Z,1013.13
2016-08-14T10:36:28.540Z,1013.01
2016-08-14T10:37:28.568Z,1013.05
2016-08-14T10:38:28.545Z,1013.06
2016-08-14T10:39:28.577Z,1013.01
2016-08-14T10:40:29.148Z,1013.01
2016-08-14T10:41:28.914Z,1012.96
2016-08-14T10:42:29.061Z,1012.95
2016-08-14T10:43:28.728Z,1012.99
2016-08-14T10:44:29.119Z,1013.04
2016-08-14T10:45:29.190Z,1012.95
2016-08-14T10:46:29.384Z,1013
2016-08-14T10:47:29.138Z,1013
2016-08-14T10:48:29.226Z,1012.89
2016-08-14T10:49:29.373Z,1012.83
2016-08-14T10:50:29.022Z,1012.91
2016-08-14T10:51:29.131Z,1012.84
2016-08-14T10:52:29.173Z,1012.89
2016-08-14T10:53:29.170Z,1012.86
2016-08-14T10:54:29.178Z,1012.71
2016-08-14T10:55:29.373Z,1012.85
2016-08-14T10:56:29.228Z,1012.81
2016-08-14T10:57:29.524Z,1012.74
2016-08-14T10:58:29.414Z,1012.87
2016-08-14T10:59:29.118Z,1012.89
2016-08-14T11:00:29.191Z,1013.01
2016-08-14T11:01:29.303Z,1012.92
2016-08-14T11:02:29.208Z,1012.8
2016-08-14T11:03:29.365Z,1012.85
2016-08-14T11:04:30.191Z,1012.85
2016-08-14T11:05:29.456Z,1012.92
2016-08-14T11:06:29.386Z,1012.95
2016-08-14T11:07:29.479Z,1012.82
2016-08-14T11:08:29.522Z,1012.99
2016-08-14T11:09:29.651Z,1012.88
2016-08-14T11:10:29.774Z,1012.79
2016-08-14T11:11:30.045Z,1013.04
2016-08-14T11:12:29.755Z,1012.98
2016-08-14T11:13:29.861Z,1012.96
2016-08-14T11:14:29.733Z,1012.95
2016-08-14T11:15:29.747Z,1013.2
2016-08-14T11:16:30.164Z,1013.38
2016-08-14T11:17:29.937Z,1012.98
2016-08-14T11:18:29.776Z,1012.93
2016-08-14T11:19:30.276Z,1012.94
2016-08-14T11:20:29.973Z,1012.98
2016-08-14T11:21:29.866Z,1013.01
2016-08-14T11:22:30.217Z,1012.99
2016-08-14T11:23:30.113Z,1013.32
2016-08-14T11:24:29.943Z,1013.16
2016-08-14T11:25:30.484Z,1013.11
2016-08-14T11:26:30.017Z,1013.04
2016-08-14T11:27:30.689Z,1012.99
2016-08-14T11:28:30.216Z,1013.08
2016-08-14T11:29:30.216Z,1013.19
2016-08-14T11:30:30.813Z,1013.6
2016-08-14T11:31:30.362Z,1013.48
2016-08-14T11:32:30.740Z,1013.54
2016-08-14T11:33:30.846Z,1013.59
2016-08-14T11:34:31.033Z,1013.36
2016-08-14T11:35:30.428Z,1013.04
2016-08-14T11:36:30.791Z,1012.93
2016-08-14T11:37:30.702Z,1013.01
2016-08-14T11:38:30.784Z,1013.07
2016-08-14T11:39:30.808Z,1013.08
2016-08-14T11:40:30.912Z,1013.15
2016-08-14T11:41:30.883Z,1013.05
2016-08-14T11:42:30.585Z,1013.64
2016-08-14T11:43:30.712Z,1013.31
2016-08-14T11:44:30.912Z,1013.44
2016-08-14T11:45:30.852Z,1013.24
2016-08-14T11:46:30.897Z,1013.07
2016-08-14T11:47:31.302Z,1013.01
2016-08-14T11:48:31.239Z,1013.12
2016-08-14T11:49:30.908Z,1013.02
2016-08-14T11:50:31.026Z,1013.1
2016-08-14T11:51:31.574Z,1013.44
2016-08-14T11:52:31.125Z,1013.62
2016-08-14T11:53:31.797Z,1013.21
2016-08-14T11:54:31.220Z,1013.33
2016-08-14T11:55:31.221Z,1013.24
2016-08-14T11:56:31.848Z,1012.97
2016-08-14T11:57:31.194Z,1013.06
2016-08-14T11:58:31.282Z,1013
2016-08-14T11:59:31.304Z,1012.86
2016-08-14T12:00:31.516Z,1012.87
2016-08-14T12:01:31.560Z,1012.83
2016-08-14T12:02:31.562Z,1013.17
2016-08-14T12:03:31.453Z,1013.37
2016-08-14T12:04:31.864Z,1012.95
2016-08-14T12:05:32.213Z,1012.96
2016-08-14T12:06:31.893Z,1012.95
2016-08-14T12:07:31.793Z,1012.97
2016-08-14T12:08:32.096Z,1013.04